Time;durP1;ratioP1;P1;durP2;ratioP2;P2;SDS_P1;SDS_P2;PMS_P1;PMS_P2;Temp;Humidity;BMP_temperature;BMP_pressure;BME280_temperature;BME280_humidity;BME280_pressure;Samples;Min_cycle;Max_cycle;Signal;HPM_P1;HPM_P2
2024/04/08 00:00:45;;;;;;;13.00;3.38;;;17.00;63.80;;;;;;5036996;28;20060;-58
2024/04/08 00:03:29;;;;;;;8.63;2.45;;;17.00;63.80;;;;;;5043103;28;20098;-60
2024/04/08 00:06:16;;;;;;;13.15;3.35;;;17.00;63.90;;;;;;5032166;28;20132;-58
2024/04/08 00:09:01;;;;;;;11.38;3.35;;;17.00;63.90;;;;;;5043218;28;20461;-59
2024/04/08 00:11:47;;;;;;;9.30;3.38;;;17.00;64.00;;;;;;5036833;28;20391;-58
2024/04/08 00:14:32;;;;;;;13.25;2.85;;;16.90;63.90;;;;;;5032856;28;20102;-58
2024/04/08 00:17:17;;;;;;;11.57;3.35;;;16.90;63.90;;;;;;5034271;28;20076;-58
2024/04/08 00:20:03;;;;;;;10.38;3.05;;;16.90;64.00;;;;;;5034475;28;20355;-59
2024/04/08 00:22:54;;;;;;;11.65;3.22;;;16.90;63.90;;;;;;5034231;28;20470;-58
2024/04/08 00:25:38;;;;;;;15.35;3.13;;;16.90;64.10;;;;;;5032828;28;20469;-58
2024/04/08 00:28:23;;;;;;;11.07;3.45;;;16.80;63.90;;;;;;5042790;28;20090;-58
2024/04/08 00:31:10;;;;;;;9.60;2.35;;;16.80;63.90;;;;;;5035218;28;20047;-58
2024/04/08 00:33:55;;;;;;;11.43;3.13;;;16.80;64.10;;;;;;5033324;28;20066;-58
2024/04/08 00:36:41;;;;;;;9.63;3.53;;;16.80;64.10;;;;;;5031365;28;20086;-58
2024/04/08 00:39:26;;;;;;;11.00;3.10;;;16.70;63.90;;;;;;5034956;28;20598;-59
2024/04/08 00:42:11;;;;;;;11.82;3.10;;;16.70;64.00;;;;;;5021108;28;20111;-59
2024/04/08 00:44:56;;;;;;;15.38;4.72;;;16.70;64.10;;;;;;5018655;28;20411;-58
2024/04/08 00:47:41;;;;;;;11.15;3.47;;;16.70;64.10;;;;;;5041659;28;20052;-60
2024/04/08 00:50:26;;;;;;;9.65;2.83;;;16.60;63.90;;;;;;5033282;28;20310;-57
2024/04/08 00:53:13;;;;;;;10.70;2.70;;;16.70;64.20;;;;;;5031404;28;20610;-60
2024/04/08 00:55:58;;;;;;;13.00;3.08;;;16.70;64.20;;;;;;5026186;28;20558;-57
2024/04/08 00:58:43;;;;;;;6.78;2.80;;;16.70;64.20;;;;;;5036044;28;20595;-58
2024/04/08 01:01:29;;;;;;;9.60;2.78;;;16.70;64.30;;;;;;5005097;28;20064;-68
2024/04/08 01:04:14;;;;;;;9.38;3.38;;;16.70;64.30;;;;;;5033961;28;20090;-57
2024/04/08 01:07:00;;;;;;;10.20;2.47;;;16.70;64.30;;;;;;5018963;28;20055;-58
2024/04/08 01:09:45;;;;;;;10.82;2.95;;;16.60;64.20;;;;;;5017152;28;20056;-61
2024/04/08 01:12:30;;;;;;;13.93;3.25;;;16.60;64.20;;;;;;5019111;28;20125;-59
2024/04/08 01:15:16;;;;;;;12.00;2.80;;;16.60;64.20;;;;;;5032259;28;20084;-58
2024/04/08 01:18:01;;;;;;;12.80;4.05;;;16.60;64.30;;;;;;5034103;28;20084;-60
2024/04/08 01:20:46;;;;;;;12.95;3.03;;;16.60;64.30;;;;;;5033552;28;20084;-58
2024/04/08 01:23:58;;;;;;;12.70;3.03;;;16.60;64.30;;;;;;5028176;28;20132;-61
2024/04/08 01:26:43;;;;;;;15.85;4.38;;;16.60;64.40;;;;;;5033513;28;20571;-58
2024/04/08 01:29:28;;;;;;;17.55;4.30;;;16.60;64.30;;;;;;5035245;28;20403;-59
2024/04/08 01:32:12;;;;;;;10.68;3.75;;;16.60;64.30;;;;;;5029364;28;20365;-60
2024/04/08 01:34:57;;;;;;;8.57;2.72;;;16.60;64.30;;;;;;5036243;28;20082;-57
2024/04/08 01:37:42;;;;;;;11.82;3.13;;;16.60;64.40;;;;;;5035002;28;20315;-56
2024/04/08 01:40:27;;;;;;;9.02;2.25;;;16.60;64.40;;;;;;5030195;28;20527;-59
2024/04/08 01:43:11;;;;;;;13.55;3.85;;;16.60;64.40;;;;;;5023079;28;20057;-58
2024/04/08 01:45:57;;;;;;;9.38;2.88;;;16.60;64.40;;;;;;5034222;28;20040;-60
2024/04/08 01:48:41;;;;;;;13.98;3.65;;;16.60;64.50;;;;;;5034917;28;20116;-59
2024/04/08 01:51:27;;;;;;;11.57;3.15;;;16.60;64.50;;;;;;5031656;28;20521;-58
2024/04/08 01:54:12;;;;;;;10.13;3.47;;;16.50;64.40;;;;;;5032078;28;20158;-66
2024/04/08 01:56:56;;;;;;;10.38;2.42;;;16.60;64.60;;;;;;5027980;28;20055;-58
2024/04/08 01:59:41;;;;;;;10.93;2.00;;;16.50;64.40;;;;;;5020340;28;20428;-58
2024/04/08 02:02:26;;;;;;;9.00;4.47;;;16.50;64.40;;;;;;5015329;28;20056;-60
2024/04/08 02:05:11;;;;;;;9.15;2.50;;;16.50;64.50;;;;;;5026869;28;20385;-58
2024/04/08 02:07:55;;;;;;;9.80;2.63;;;16.50;64.50;;;;;;5036350;28;20059;-58
2024/04/08 02:10:43;;;;;;;10.68;2.30;;;16.50;64.60;;;;;;5031379;28;20056;-57
2024/04/08 02:13:27;;;;;;;10.70;2.50;;;16.40;64.40;;;;;;5033260;28;20060;-58
2024/04/08 02:16:13;;;;;;;9.38;3.00;;;16.50;64.60;;;;;;5033487;28;20087;-57
2024/04/08 02:18:57;;;;;;;9.85;3.15;;;16.40;64.50;;;;;;5037680;28;20581;-57
2024/04/08 02:21:42;;;;;;;10.57;3.78;;;16.40;64.50;;;;;;5045002;28;20058;-59
2024/04/08 02:24:27;;;;;;;9.52;2.72;;;16.40;64.50;;;;;;5041846;28;20048;-58
2024/04/08 02:27:12;;;;;;;8.15;2.65;;;16.40;64.60;;;;;;5019953;28;20440;-58
2024/04/08 02:29:57;;;;;;;9.48;2.78;;;16.40;64.60;;;;;;5018816;28;20067;-59
2024/04/08 02:32:41;;;;;;;14.18;4.53;;;16.40;64.70;;;;;;5038999;28;20102;-60
2024/04/08 02:35:26;;;;;;;8.30;1.95;;;16.40;64.70;;;;;;5036259;28;20499;-60
2024/04/08 02:38:11;;;;;;;12.23;3.60;;;16.30;64.60;;;;;;5023482;28;20102;-56
2024/04/08 02:40:55;;;;;;;10.60;3.30;;;16.30;64.60;;;;;;5034543;28;20040;-64
2024/04/08 02:43:40;;;;;;;10.05;2.33;;;16.40;64.80;;;;;;5034467;28;20055;-59
2024/04/08 02:46:25;;;;;;;11.30;3.35;;;16.30;64.60;;;;;;5040197;28;20036;-58
2024/04/08 02:49:10;;;;;;;10.13;2.97;;;16.40;64.80;;;;;;5041906;28;20573;-59
2024/04/08 02:51:57;;;;;;;10.88;2.50;;;16.40;64.90;;;;;;5036919;28;20455;-59
2024/04/08 02:54:41;;;;;;;6.60;2.67;;;16.30;64.70;;;;;;5041734;28;20055;-57
2024/04/08 02:57:26;;;;;;;9.60;2.53;;;16.30;64.70;;;;;;5029672;28;20048;-58
2024/04/08 03:00:12;;;;;;;10.63;3.22;;;16.30;64.80;;;;;;5039264;28;20127;-58
2024/04/08 03:02:57;;;;;;;7.95;2.53;;;16.30;64.80;;;;;;5042723;28;20056;-59
2024/04/08 03:05:41;;;;;;;12.40;3.13;;;16.30;64.80;;;;;;5035513;28;20090;-57
2024/04/08 03:08:26;;;;;;;13.68;2.80;;;16.30;64.80;;;;;;5028724;28;20044;-57
2024/04/08 03:11:10;;;;;;;11.07;3.85;;;16.30;64.90;;;;;;5045694;28;20155;-59
2024/04/08 03:13:55;;;;;;;8.48;2.60;;;16.30;64.90;;;;;;5017603;28;20052;-58
2024/04/08 03:16:44;;;;;;;9.63;3.20;;;16.30;64.90;;;;;;5036885;28;20110;-59
2024/04/08 03:19:29;;;;;;;9.48;2.55;;;16.30;64.90;;;;;;5035974;28;20048;-59
2024/04/08 03:22:13;;;;;;;9.20;3.13;;;16.30;64.90;;;;;;5024873;28;20518;-57
2024/04/08 03:24:58;;;;;;;11.93;2.97;;;16.30;65.00;;;;;;5027199;28;20099;-58
2024/04/08 03:27:45;;;;;;;14.35;3.28;;;16.20;64.80;;;;;;5035975;28;20474;-58
2024/04/08 03:30:29;;;;;;;8.77;2.35;;;16.20;64.80;;;;;;5030843;28;20051;-58
2024/04/08 03:33:14;;;;;;;12.13;3.17;;;16.20;64.80;;;;;;5036418;28;20124;-58
2024/04/08 03:36:01;;;;;;;11.60;2.47;;;16.20;64.90;;;;;;5032593;28;20259;-58
2024/04/08 03:38:46;;;;;;;9.98;3.00;;;16.20;64.90;;;;;;5040630;28;20395;-58
2024/04/08 03:41:31;;;;;;;9.02;2.90;;;16.20;64.90;;;;;;5033977;28;20045;-58
2024/04/08 03:44:15;;;;;;;9.73;2.33;;;16.20;64.90;;;;;;5038943;28;20044;-57
2024/04/08 03:47:04;;;;;;;9.43;2.83;;;16.20;64.90;;;;;;5031426;28;20304;-57
2024/04/08 03:49:53;;;;;;;10.65;2.83;;;16.20;64.90;;;;;;5035382;28;20093;-58
2024/04/08 03:52:38;;;;;;;12.48;3.22;;;16.20;64.90;;;;;;5036491;28;20098;-58
2024/04/08 03:55:24;;;;;;;12.32;2.67;;;16.20;64.90;;;;;;5035232;28;20458;-58
2024/04/08 03:58:10;;;;;;;13.35;3.40;;;16.20;65.00;;;;;;5029569;28;20389;-57
2024/04/08 04:00:54;;;;;;;12.13;3.20;;;16.20;65.00;;;;;;5025001;28;20100;-57
2024/04/08 04:03:39;;;;;;;8.65;2.50;;;16.20;65.00;;;;;;5017276;28;20028;-58
2024/04/08 04:06:23;;;;;;;14.95;5.07;;;16.20;65.00;;;;;;5035235;28;20361;-58
2024/04/08 04:09:10;;;;;;;7.43;1.83;;;16.20;65.00;;;;;;5038262;28;20509;-57
2024/04/08 04:11:55;;;;;;;12.80;3.75;;;16.20;65.00;;;;;;5034254;28;20036;-57
2024/04/08 04:14:40;;;;;;;10.55;2.88;;;16.20;65.00;;;;;;5032929;28;20075;-60
2024/04/08 04:17:25;;;;;;;8.73;2.33;;;16.10;64.80;;;;;;5039609;28;20358;-57
2024/04/08 04:20:11;;;;;;;8.63;1.90;;;16.10;64.90;;;;;;5036753;28;20172;-57
2024/04/08 04:22:56;;;;;;;11.30;3.10;;;16.10;64.90;;;;;;5035089;28;20117;-58
2024/04/08 04:25:41;;;;;;;9.57;2.17;;;16.20;65.10;;;;;;5028128;28;20573;-57
2024/04/08 04:28:27;;;;;;;12.38;2.90;;;16.10;64.90;;;;;;5035602;28;20056;-65
2024/04/08 04:31:12;;;;;;;9.25;2.83;;;16.10;65.00;;;;;;5032260;28;20110;-58
2024/04/08 04:33:57;;;;;;;11.50;2.25;;;16.10;65.00;;;;;;5030100;28;20060;-58
2024/04/08 04:36:44;;;;;;;8.00;2.50;;;16.10;65.10;;;;;;5015889;28;20036;-61
2024/04/08 04:39:29;;;;;;;11.85;1.90;;;16.10;65.10;;;;;;5032011;28;20040;-57
2024/04/08 04:42:14;;;;;;;9.65;2.15;;;16.10;65.10;;;;;;5037805;28;20075;-57
2024/04/08 04:44:59;;;;;;;10.43;3.25;;;16.00;65.00;;;;;;5020325;28;20117;-59
2024/04/08 04:47:43;;;;;;;9.57;2.25;;;16.00;65.00;;;;;;5033656;28;20063;-58
2024/04/08 04:50:29;;;;;;;8.75;2.70;;;16.00;65.10;;;;;;5045028;28;20137;-58
2024/04/08 04:53:14;;;;;;;8.50;2.95;;;16.00;65.10;;;;;;5036457;28;20842;-58
2024/04/08 04:56:02;;;;;;;12.75;3.80;;;16.00;65.10;;;;;;5022504;28;20060;-58
2024/04/08 04:58:46;;;;;;;6.25;1.90;;;16.00;65.10;;;;;;5018096;28;20558;-58
2024/04/08 05:01:33;;;;;;;9.20;2.90;;;16.00;65.10;;;;;;5031849;28;20446;-58
2024/04/08 05:04:18;;;;;;;7.57;2.60;;;16.00;65.10;;;;;;5032789;28;20071;-58
2024/04/08 05:07:02;;;;;;;11.55;3.17;;;16.00;65.10;;;;;;5035077;28;20048;-60
2024/04/08 05:11:26;;;;;;;10.93;2.60;;;16.00;65.20;;;;;;5427210;25;20348;-58
2024/04/08 05:14:10;;;;;;;8.45;2.65;;;15.90;64.90;;;;;;5383248;26;20070;-58
2024/04/08 05:16:55;;;;;;;13.52;2.70;;;15.90;65.00;;;;;;5383768;26;20051;-59
2024/04/08 05:19:39;;;;;;;9.80;2.25;;;15.90;65.00;;;;;;5386472;26;20013;-60
2024/04/08 05:22:28;;;;;;;8.60;2.78;;;15.90;65.10;;;;;;5359419;26;20420;-58
2024/04/08 05:25:13;;;;;;;10.45;2.67;;;15.80;64.90;;;;;;5360068;26;20024;-57
2024/04/08 05:27:57;;;;;;;10.50;2.15;;;15.80;65.00;;;;;;5357980;26;20022;-58
2024/04/08 05:30:43;;;;;;;11.32;2.65;;;15.80;65.00;;;;;;5356874;26;20397;-59
2024/04/08 05:33:28;;;;;;;10.82;2.72;;;15.80;65.10;;;;;;5348082;26;20018;-62
2024/04/08 05:36:13;;;;;;;11.93;4.88;;;15.80;65.20;;;;;;5350493;26;20015;-56
2024/04/08 05:38:58;;;;;;;16.65;6.45;;;15.70;65.10;;;;;;5413678;26;20081;-58
2024/04/08 05:41:43;;;;;;;11.13;4.43;;;15.70;65.40;;;;;;5369581;26;20749;-56
2024/04/08 05:44:27;;;;;;;11.70;4.55;;;15.80;65.90;;;;;;5369297;26;20014;-63
2024/04/08 05:47:12;;;;;;;13.25;3.88;;;15.80;66.10;;;;;;5373377;26;20023;-57
2024/04/08 05:49:57;;;;;;;10.27;2.95;;;15.90;66.40;;;;;;5363878;26;20081;-57
2024/04/08 05:52:41;;;;;;;10.25;4.05;;;15.90;66.30;;;;;;5358211;26;20024;-57
2024/04/08 05:55:31;;;;;;;16.48;4.63;;;15.90;66.10;;;;;;5350831;26;20085;-58
2024/04/08 05:58:17;;;;;;;15.82;5.10;;;15.90;66.00;;;;;;5352008;26;20019;-57
2024/04/08 06:01:02;;;;;;;14.25;4.50;;;15.90;66.00;;;;;;5365150;26;20564;-56
2024/04/08 06:03:47;;;;;;;16.00;4.57;;;15.90;66.00;;;;;;5364310;26;20085;-56
2024/04/08 06:06:32;;;;;;;8.55;3.50;;;15.90;66.00;;;;;;5344243;26;20015;-58
2024/04/08 06:09:16;;;;;;;15.13;3.63;;;15.90;66.00;;;;;;5378738;26;20018;-55
2024/04/08 06:12:02;;;;;;;12.13;2.78;;;15.90;66.00;;;;;;5396886;26;20595;-57
2024/04/08 06:14:47;;;;;;;14.10;4.47;;;15.80;65.80;;;;;;5404357;26;20073;-58
2024/04/08 06:17:31;;;;;;;12.48;3.17;;;15.80;65.90;;;;;;5402060;26;20527;-56
2024/04/08 06:20:16;;;;;;;9.80;2.92;;;15.90;66.10;;;;;;5343018;26;20016;-55
2024/04/08 06:23:01;;;;;;;10.00;2.53;;;15.90;66.20;;;;;;5339933;26;20379;-60
2024/04/08 06:25:45;;;;;;;10.15;2.72;;;15.80;66.00;;;;;;5351772;26;20020;-57
2024/04/08 06:28:30;;;;;;;8.35;3.15;;;15.80;66.10;;;;;;5349929;26;20114;-57
2024/04/08 06:31:15;;;;;;;11.50;2.63;;;15.80;66.20;;;;;;5344812;26;20012;-56
2024/04/08 06:34:00;;;;;;;12.57;3.38;;;15.80;66.20;;;;;;5369116;26;20570;-58
2024/04/08 06:36:46;;;;;;;9.93;3.08;;;15.80;66.20;;;;;;5341870;26;20065;-60
2024/04/08 06:39:31;;;;;;;11.88;2.63;;;15.90;66.40;;;;;;5373283;26;20015;-57
2024/04/08 06:42:17;;;;;;;10.07;3.80;;;15.90;66.40;;;;;;5374881;26;20855;-58
2024/04/08 06:45:02;;;;;;;10.40;3.33;;;15.90;66.40;;;;;;5372503;26;20015;-58
2024/04/08 06:47:46;;;;;;;8.18;3.00;;;16.00;66.40;;;;;;5371942;26;20093;-57
2024/04/08 06:50:31;;;;;;;8.05;2.53;;;16.00;66.30;;;;;;5344815;26;20108;-56
2024/04/08 06:53:18;;;;;;;9.15;2.60;;;16.00;66.10;;;;;;5361063;26;20084;-57
2024/04/08 06:56:04;;;;;;;9.13;2.55;;;16.00;65.90;;;;;;5335486;26;20421;-57
2024/04/08 06:58:52;;;;;;;8.43;2.53;;;16.00;65.80;;;;;;5363676;26;20564;-56
2024/04/08 07:01:37;;;;;;;6.93;2.15;;;16.10;65.80;;;;;;5356617;26;20115;-56
2024/04/08 07:04:22;;;;;;;6.70;2.65;;;16.10;65.60;;;;;;5355356;26;20077;-58
2024/04/08 07:07:06;;;;;;;5.53;2.08;;;16.10;65.40;;;;;;5350360;26;20082;-55
2024/04/08 07:09:51;;;;;;;7.47;2.42;;;16.10;65.20;;;;;;5349821;26;20661;-57
2024/04/08 07:12:36;;;;;;;11.63;3.83;;;16.10;65.00;;;;;;5330080;26;20181;-57
2024/04/08 07:15:21;;;;;;;7.03;2.45;;;16.20;65.00;;;;;;5356956;26;20019;-57
2024/04/08 07:18:05;;;;;;;6.68;2.10;;;16.20;64.80;;;;;;5359341;26;20088;-56
2024/04/08 07:20:50;;;;;;;8.25;1.95;;;16.30;64.70;;;;;;5371911;26;20069;-56
2024/04/08 07:23:35;;;;;;;6.70;2.47;;;16.30;64.50;;;;;;5341716;26;20023;-57
2024/04/08 07:26:19;;;;;;;7.03;3.05;;;16.30;64.20;;;;;;5348513;26;20135;-56
2024/04/08 07:29:04;;;;;;;7.93;2.10;;;16.40;64.20;;;;;;5356004;26;20521;-55
2024/04/08 07:31:48;;;;;;;5.68;2.30;;;16.40;64.00;;;;;;5366851;26;20026;-57
2024/04/08 07:34:33;;;;;;;7.65;1.98;;;16.50;63.90;;;;;;5348125;26;20023;-56
2024/04/08 07:37:21;;;;;;;4.80;2.13;;;16.50;63.70;;;;;;5342833;26;20019;-57
2024/04/08 07:40:06;;;;;;;6.20;1.88;;;16.60;63.70;;;;;;5337967;26;20384;-56
2024/04/08 07:42:51;;;;;;;7.28;2.53;;;16.60;63.50;;;;;;5335640;26;20038;-56
2024/04/08 07:45:36;;;;;;;8.50;2.03;;;16.60;63.40;;;;;;5342498;26;20493;-58
2024/04/08 07:48:20;;;;;;;5.00;1.70;;;16.70;63.30;;;;;;5373142;26;20076;-56
2024/04/08 07:51:05;;;;;;;6.38;2.15;;;16.70;63.20;;;;;;5339297;26;20050;-56
2024/04/08 07:53:50;;;;;;;6.95;1.58;;;16.80;63.20;;;;;;5373747;26;20077;-60
2024/04/08 07:56:35;;;;;;;4.45;1.90;;;16.80;62.90;;;;;;5373001;26;20041;-55
2024/04/08 07:59:20;;;;;;;7.05;2.50;;;16.90;62.90;;;;;;5388070;26;20359;-56
2024/04/08 08:02:05;;;;;;;5.93;1.73;;;17.00;62.90;;;;;;5394815;26;20026;-57
2024/04/08 08:04:49;;;;;;;6.53;2.17;;;17.00;62.70;;;;;;5359680;26;20510;-57
2024/04/08 08:07:34;;;;;;;6.50;2.33;;;17.10;62.70;;;;;;5371754;26;20039;-56
2024/04/08 08:10:19;;;;;;;5.85;1.50;;;17.10;62.50;;;;;;5367921;26;20015;-58
2024/04/08 08:13:04;;;;;;;7.00;2.22;;;17.10;62.40;;;;;;5349031;26;20086;-57
2024/04/08 08:15:55;;;;;;;7.15;1.65;;;17.20;62.50;;;;;;5356801;26;20757;-57
2024/04/08 08:18:40;;;;;;;5.50;1.85;;;17.20;62.30;;;;;;5355051;26;20015;-57
2024/04/08 08:21:25;;;;;;;6.95;2.35;;;17.30;62.40;;;;;;5349089;26;20051;-57
2024/04/08 08:24:10;;;;;;;5.80;1.70;;;17.40;62.50;;;;;;5341777;26;20027;-59
2024/04/08 08:26:54;;;;;;;10.00;3.03;;;17.30;62.20;;;;;;5345575;26;20308;-57
2024/04/08 08:29:40;;;;;;;5.22;1.92;;;17.40;62.30;;;;;;5373811;26;20558;-57
2024/04/08 08:32:25;;;;;;;5.35;1.92;;;17.40;62.20;;;;;;5391032;26;20737;-59
2024/04/08 08:35:11;;;;;;;8.25;1.95;;;17.40;62.20;;;;;;5361272;26;20027;-57
2024/04/08 08:37:55;;;;;;;8.73;2.60;;;17.50;62.30;;;;;;5361084;26;20007;-58
2024/04/08 08:40:44;;;;;;;8.95;3.08;;;17.50;62.30;;;;;;5351193;26;20027;-56
2024/04/08 08:43:30;;;;;;;13.43;3.42;;;17.60;62.40;;;;;;5351252;26;20436;-57
2024/04/08 08:46:16;;;;;;;7.40;2.33;;;17.60;62.30;;;;;;5364020;26;20022;-57
2024/04/08 08:49:02;;;;;;;6.82;2.50;;;17.60;62.30;;;;;;5381319;26;20074;-58
2024/04/08 08:51:47;;;;;;;10.07;2.10;;;17.60;62.20;;;;;;5347073;26;20077;-58
2024/04/08 08:54:31;;;;;;;5.13;1.90;;;17.60;62.10;;;;;;5355066;26;20495;-58
2024/04/08 08:57:16;;;;;;;6.90;2.47;;;17.70;62.20;;;;;;5339833;26;20023;-57
2024/04/08 09:00:06;;;;;;;9.68;3.13;;;17.70;62.10;;;;;;5339385;26;20015;-58
2024/04/08 09:02:51;;;;;;;11.25;2.65;;;17.80;62.20;;;;;;5365341;26;23932;-57
2024/04/08 09:05:36;;;;;;;10.32;2.95;;;17.80;62.10;;;;;;5349970;26;20362;-58
2024/04/08 09:08:21;;;;;;;7.07;2.40;;;17.90;62.10;;;;;;5350895;26;20015;-57
2024/04/08 09:11:07;;;;;;;10.18;3.15;;;18.00;62.20;;;;;;5335601;26;20023;-57
2024/04/08 09:13:51;;;;;;;9.98;1.83;;;18.00;62.10;;;;;;5332016;26;20019;-59
2024/04/08 09:16:36;;;;;;;5.63;1.80;;;18.10;62.20;;;;;;5350243;26;20015;-58
2024/04/08 09:19:21;;;;;;;11.48;2.78;;;18.10;62.00;;;;;;5360258;26;20097;-58
2024/04/08 09:22:07;;;;;;;8.32;2.08;;;18.20;62.10;;;;;;5349156;26;20022;-58
2024/04/08 09:24:52;;;;;;;7.60;1.83;;;18.30;62.10;;;;;;5347742;26;20092;-57
2024/04/08 09:27:37;;;;;;;8.68;2.63;;;18.30;61.90;;;;;;5348201;26;20027;-58
2024/04/08 09:30:22;;;;;;;5.47;2.03;;;18.40;61.90;;;;;;5357490;26;20015;-58
2024/04/08 09:33:10;;;;;;;5.50;2.10;;;18.50;61.90;;;;;;5384785;26;20040;-57
2024/04/08 09:35:55;;;;;;;6.72;2.38;;;18.50;61.70;;;;;;5383724;26;20081;-55
2024/04/08 09:38:43;;;;;;;4.40;1.70;;;18.60;61.80;;;;;;5366347;26;20416;-57
2024/04/08 09:41:31;;;;;;;5.38;1.65;;;18.70;61.80;;;;;;5394754;26;20532;-57
2024/04/08 09:44:17;;;;;;;7.57;1.88;;;18.70;61.70;;;;;;5381902;26;20510;-58
2024/04/08 09:47:02;;;;;;;6.28;2.13;;;18.70;61.50;;;;;;5403556;26;20565;-57
2024/04/08 09:49:49;;;;;;;6.97;1.88;;;18.80;61.50;;;;;;5384500;26;20072;-57
2024/04/08 09:52:33;;;;;;;7.85;2.95;;;18.80;61.40;;;;;;5387076;26;20010;-56
2024/04/08 09:55:26;;;;;;;5.63;1.52;;;18.80;61.30;;;;;;5386421;26;20014;-57
2024/04/08 09:58:17;;;;;;;4.60;1.65;;;18.90;61.30;;;;;;5395868;26;20050;-56
2024/04/08 10:01:03;;;;;;;5.50;2.92;;;18.90;61.20;;;;;;5389170;26;20019;-56
2024/04/08 10:03:52;;;;;;;9.30;3.35;;;18.90;61.10;;;;;;5391643;26;20078;-58
2024/04/08 10:06:39;;;;;;;5.00;1.67;;;18.90;61.00;;;;;;5388189;26;20469;-57
2024/04/08 10:09:25;;;;;;;5.88;1.58;;;19.00;61.00;;;;;;5379986;26;20076;-58
2024/04/08 10:12:10;;;;;;;3.60;1.63;;;19.00;60.90;;;;;;5386844;26;20351;-56
2024/04/08 10:14:54;;;;;;;6.95;1.55;;;19.00;60.90;;;;;;5411972;26;20131;-58
2024/04/08 10:17:42;;;;;;;6.45;1.58;;;19.10;60.90;;;;;;5387709;26;20570;-57
2024/04/08 10:20:27;;;;;;;4.93;1.80;;;19.10;60.70;;;;;;5379320;26;20495;-58
2024/04/08 10:23:12;;;;;;;3.00;1.02;;;19.20;60.80;;;;;;5375659;26;20554;-63
2024/04/08 10:25:59;;;;;;;3.20;1.55;;;19.30;60.80;;;;;;5376170;26;20088;-57
2024/04/08 10:28:44;;;;;;;3.25;1.23;;;19.40;60.70;;;;;;5403595;26;20084;-59
2024/04/08 10:31:29;;;;;;;5.38;1.50;;;19.50;60.70;;;;;;5394669;26;20109;-57
2024/04/08 10:34:19;;;;;;;3.50;1.85;;;19.60;60.70;;;;;;5386541;26;20056;-58
2024/04/08 10:37:03;;;;;;;5.20;1.92;;;19.80;60.80;;;;;;5390128;26;20369;-57
2024/04/08 10:39:57;;;;;;;4.22;1.27;;;19.90;60.70;;;;;;5385968;26;20496;-63
2024/04/08 10:42:41;;;;;;;3.95;1.30;;;20.10;60.70;;;;;;5389506;26;20092;-57
2024/04/08 10:45:26;;;;;;;2.75;1.42;;;20.20;60.60;;;;;;5380340;26;20038;-56
2024/04/08 10:48:11;;;;;;;3.65;1.27;;;20.30;60.50;;;;;;5388486;26;20019;-57
2024/04/08 10:50:56;;;;;;;4.60;1.42;;;20.50;60.50;;;;;;5394930;26;20362;-61
2024/04/08 10:53:42;;;;;;;3.25;1.15;;;20.70;60.50;;;;;;5389573;26;20393;-56
2024/04/08 10:56:27;;;;;;;3.63;1.00;;;20.90;60.50;;;;;;5376073;26;20717;-58
2024/04/08 10:59:12;;;;;;;4.85;1.95;;;21.00;60.50;;;;;;5385266;26;20015;-59
2024/04/08 11:01:57;;;;;;;4.30;1.52;;;21.20;60.40;;;;;;5388322;26;20075;-57
2024/04/08 11:04:43;;;;;;;3.03;1.30;;;21.40;60.50;;;;;;5394839;26;20081;-56
2024/04/08 11:07:35;;;;;;;4.82;1.50;;;21.60;60.60;;;;;;5396788;26;20556;-57
2024/04/08 11:10:22;;;;;;;3.42;1.20;;;21.70;60.40;;;;;;5384773;26;20408;-58
2024/04/08 11:13:08;;;;;;;3.40;1.45;;;22.00;60.50;;;;;;5389625;26;20006;-56
2024/04/08 11:15:52;;;;;;;3.35;1.48;;;22.20;60.50;;;;;;5387494;26;20373;-58
2024/04/08 11:18:38;;;;;;;3.60;1.40;;;22.40;60.40;;;;;;5380302;26;20052;-57
2024/04/08 11:21:24;;;;;;;2.80;1.10;;;22.70;60.50;;;;;;5374995;26;20015;-58
2024/04/08 11:24:12;;;;;;;2.65;1.10;;;22.90;60.40;;;;;;5385403;26;20465;-59
2024/04/08 11:26:57;;;;;;;4.70;1.20;;;23.10;60.40;;;;;;5403920;26;20009;-59
2024/04/08 11:29:42;;;;;;;3.47;1.10;;;23.10;60.10;;;;;;5376112;26;20029;-57
2024/04/08 11:32:26;;;;;;;2.17;1.20;;;23.20;60.00;;;;;;5396719;26;20013;-59
2024/04/08 11:35:12;;;;;;;3.67;1.48;;;23.40;60.10;;;;;;5380309;26;20014;-56
2024/04/08 11:37:57;;;;;;;1.65;0.98;;;23.50;60.10;;;;;;5388400;26;20650;-57
2024/04/08 11:40:42;;;;;;;3.75;1.10;;;23.60;60.00;;;;;;5361536;26;20069;-57
2024/04/08 11:43:27;;;;;;;2.45;0.70;;;23.70;59.90;;;;;;5373919;26;20023;-57
2024/04/08 11:46:12;;;;;;;2.00;0.65;;;23.80;59.80;;;;;;5390754;26;20069;-58
2024/04/08 11:48:57;;;;;;;1.88;0.77;;;23.90;59.60;;;;;;5388202;26;20045;-59
2024/04/08 11:51:42;;;;;;;2.83;1.00;;;24.10;59.60;;;;;;5383540;26;20022;-57
2024/04/08 11:54:27;;;;;;;2.92;1.30;;;24.10;59.30;;;;;;5387917;26;20095;-58
2024/04/08 11:57:13;;;;;;;1.55;0.65;;;24.20;59.20;;;;;;5384623;26;20536;-58
2024/04/08 11:59:58;;;;;;;1.27;0.65;;;24.30;59.10;;;;;;5366132;26;20439;-57
2024/04/08 12:02:42;;;;;;;1.27;0.80;;;24.30;58.90;;;;;;5384068;26;20065;-58
2024/04/08 12:05:27;;;;;;;2.22;1.08;;;24.30;58.80;;;;;;5376463;26;20015;-57
2024/04/08 12:08:12;;;;;;;0.90;0.55;;;24.30;58.70;;;;;;5383897;26;20014;-58
2024/04/08 12:10:57;;;;;;;1.58;0.65;;;24.30;58.50;;;;;;5395748;26;20014;-58
2024/04/08 12:13:41;;;;;;;2.72;0.70;;;24.20;58.30;;;;;;5384422;26;20113;-57
2024/04/08 12:16:27;;;;;;;2.40;0.80;;;24.20;58.30;;;;;;5375701;26;20597;-56
2024/04/08 12:19:12;;;;;;;2.55;1.10;;;24.10;58.00;;;;;;5374266;26;20034;-57
2024/04/08 12:21:57;;;;;;;2.10;0.90;;;24.10;58.00;;;;;;5387399;26;20421;-57
2024/04/08 12:24:43;;;;;;;1.02;0.60;;;24.00;57.80;;;;;;5386426;26;20429;-57
2024/04/08 12:27:30;;;;;;;3.28;0.80;;;24.00;57.60;;;;;;5385266;26;20022;-56
2024/04/08 12:30:14;;;;;;;1.75;0.82;;;24.00;57.60;;;;;;5384265;26;20014;-57
2024/04/08 12:32:59;;;;;;;2.75;0.73;;;24.10;58.10;;;;;;5386692;26;20117;-58
2024/04/08 12:35:44;;;;;;;3.00;0.93;;;24.10;57.30;;;;;;5369109;26;20533;-58
2024/04/08 12:38:29;;;;;;;1.90;0.60;;;24.10;57.10;;;;;;5382047;26;20515;-57
2024/04/08 12:41:13;;;;;;;1.92;0.60;;;24.20;57.10;;;;;;5379888;26;20402;-58
2024/04/08 12:43:59;;;;;;;1.23;0.40;;;24.20;57.00;;;;;;5379197;26;20638;-56
2024/04/08 12:46:44;;;;;;;2.08;0.80;;;24.10;56.70;;;;;;5384617;26;20089;-56
2024/04/08 12:49:28;;;;;;;1.45;0.50;;;24.10;56.70;;;;;;5385966;26;20555;-57
2024/04/08 12:52:13;;;;;;;1.95;0.73;;;24.00;56.40;;;;;;5383778;26;20022;-57
2024/04/08 12:54:58;;;;;;;2.60;1.23;;;24.00;56.40;;;;;;5372000;26;20465;-58
2024/04/08 12:57:43;;;;;;;1.83;1.15;;;23.90;56.20;;;;;;5373782;26;20076;-57
2024/04/08 13:00:29;;;;;;;1.52;0.60;;;23.80;56.00;;;;;;5384853;26;20243;-58
2024/04/08 13:03:14;;;;;;;2.90;1.20;;;23.80;55.90;;;;;;5371761;26;20371;-57
2024/04/08 13:05:59;;;;;;;2.60;0.90;;;23.80;55.90;;;;;;5377778;26;20010;-58
2024/04/08 13:08:44;;;;;;;3.75;0.90;;;23.70;55.70;;;;;;5368796;26;20025;-57
2024/04/08 13:11:28;;;;;;;1.02;0.45;;;23.70;55.70;;;;;;5380709;26;20079;-57
2024/04/08 13:14:14;;;;;;;3.28;0.73;;;23.70;55.70;;;;;;5376906;26;20086;-56
2024/04/08 13:16:59;;;;;;;1.98;0.82;;;23.70;55.70;;;;;;5368731;26;20866;-57
2024/04/08 13:19:44;;;;;;;3.47;1.05;;;23.80;55.80;;;;;;5372240;26;20019;-57
2024/04/08 13:22:30;;;;;;;1.25;0.55;;;23.90;55.90;;;;;;5390381;26;20010;-57
2024/04/08 13:25:15;;;;;;;0.95;0.57;;;23.90;55.80;;;;;;5374667;26;20018;-57
2024/04/08 13:28:00;;;;;;;1.75;0.65;;;24.00;55.90;;;;;;5373473;26;20006;-57
2024/04/08 13:30:44;;;;;;;1.85;0.60;;;24.00;55.80;;;;;;5388985;26;20776;-56
2024/04/08 13:33:29;;;;;;;1.80;0.60;;;24.00;55.70;;;;;;5452282;26;20061;-57
2024/04/08 13:36:14;;;;;;;2.58;0.60;;;24.10;56.40;;;;;;5408792;26;20014;-58
2024/04/08 13:38:59;;;;;;;2.58;0.80;;;24.10;55.80;;;;;;5371021;26;20019;-60
2024/04/08 13:41:44;;;;;;;1.23;0.70;;;24.10;55.70;;;;;;5377869;26;20006;-58
2024/04/08 13:44:28;;;;;;;1.33;0.60;;;24.10;55.60;;;;;;5381373;26;20500;-57
2024/04/08 13:47:14;;;;;;;1.63;0.82;;;24.20;55.70;;;;;;5379241;26;20533;-56
2024/04/08 13:49:59;;;;;;;2.20;1.08;;;24.30;55.70;;;;;;5380086;26;20068;-56
2024/04/08 13:52:43;;;;;;;1.60;0.52;;;24.30;55.60;;;;;;5379064;26;20097;-54
2024/04/08 13:55:28;;;;;;;1.73;0.60;;;24.30;55.50;;;;;;5378741;26;20035;-57
2024/04/08 13:58:12;;;;;;;2.45;0.70;;;24.30;55.50;;;;;;5369662;26;20498;-57
2024/04/08 14:00:57;;;;;;;2.25;0.65;;;24.20;55.30;;;;;;5392659;26;20010;-57
2024/04/08 14:03:41;;;;;;;1.30;0.68;;;24.20;55.30;;;;;;5371506;26;20017;-57
2024/04/08 14:06:26;;;;;;;2.42;1.17;;;24.20;55.20;;;;;;5376801;26;20309;-57
2024/04/08 14:09:11;;;;;;;1.17;0.55;;;24.20;55.20;;;;;;5399328;26;20087;-58
2024/04/08 14:11:56;;;;;;;2.05;0.70;;;24.20;55.20;;;;;;5374631;26;20014;-57
2024/04/08 14:14:41;;;;;;;1.75;0.82;;;24.20;55.20;;;;;;5380119;26;20010;-57
2024/04/08 14:17:25;;;;;;;1.70;0.70;;;24.20;55.10;;;;;;5388801;26;20026;-58